Time;durP1;ratioP1;P1;durP2;ratioP2;P2;SDS_P1;SDS_P2;PMS_P1;PMS_P2;Temp;Humidity;BMP_temperature;BMP_pressure;BME280_temperature;BME280_humidity;BME280_pressure;Samples;Min_cycle;Max_cycle;Signal;HPM_P1;HPM_P2
2023/05/22 00:01:18;;;;;;;10.48;9.48;;;15.30;99.20;;;;;;6150548;23;20162;-79
2023/05/22 00:03:47;;;;;;;11.35;10.15;;;15.40;99.90;;;;;;6124360;23;20171;-80
2023/05/22 00:06:13;;;;;;;10.38;9.57;;;15.50;99.90;;;;;;6150886;23;20658;-79
2023/05/22 00:08:39;;;;;;;10.98;10.07;;;15.50;99.90;;;;;;6123818;23;20170;-79
2023/05/22 00:11:05;;;;;;;11.02;10.02;;;15.10;99.90;;;;;;6150367;23;20172;-79
2023/05/22 00:13:30;;;;;;;11.48;10.38;;;15.10;99.90;;;;;;6124008;23;20159;-80
2023/05/22 00:15:56;;;;;;;10.45;9.48;;;15.40;99.90;;;;;;6124272;23;20551;-81
2023/05/22 00:18:22;;;;;;;11.00;10.00;;;15.10;99.90;;;;;;6124626;23;20167;-79
2023/05/22 00:20:49;;;;;;;10.10;9.20;;;15.00;99.90;;;;;;6124662;23;20473;-79
2023/05/22 00:23:16;;;;;;;11.80;9.70;;;15.00;99.90;;;;;;6124479;23;20168;-83
2023/05/22 00:25:41;;;;;;;10.85;10.00;;;14.90;99.90;;;;;;6123146;23;20187;-84
2023/05/22 00:28:07;;;;;;;10.48;9.52;;;14.90;99.90;;;;;;6151226;23;20496;-80
2023/05/22 00:30:32;;;;;;;10.48;9.48;;;15.10;99.90;;;;;;6123617;23;20183;-82
2023/05/22 00:32:58;;;;;;;10.68;9.70;;;14.90;99.90;;;;;;6123960;23;20155;-82
2023/05/22 00:35:24;;;;;;;10.70;9.18;;;14.80;99.90;;;;;;6124881;23;20695;-79
2023/05/22 00:37:50;;;;;;;10.02;9.07;;;14.80;99.90;;;;;;6125036;23;20179;-79
2023/05/22 00:40:15;;;;;;;10.77;9.88;;;14.70;99.90;;;;;;6125071;23;20194;-79
2023/05/22 00:42:44;;;;;;;10.80;9.80;;;15.20;99.90;;;;;;6124388;23;20250;-80
2023/05/22 00:45:10;;;;;;;10.60;9.60;;;15.30;99.90;;;;;;6124615;23;20190;-79
2023/05/22 00:47:36;;;;;;;10.25;9.35;;;14.70;99.90;;;;;;6124682;23;20159;-79
2023/05/22 00:50:04;;;;;;;10.10;9.18;;;14.70;99.90;;;;;;6124562;23;20528;-80
2023/05/22 00:52:30;;;;;;;9.38;8.45;;;14.70;99.90;;;;;;6149834;23;20151;-80
2023/05/22 00:54:56;;;;;;;10.73;9.82;;;14.70;99.90;;;;;;6123462;23;20507;-79
2023/05/22 00:57:23;;;;;;;9.82;8.93;;;14.80;99.90;;;;;;6123295;23;20159;-82
2023/05/22 00:59:49;;;;;;;9.63;8.50;;;14.80;99.90;;;;;;6123943;23;20186;-79
2023/05/22 01:02:15;;;;;;;9.07;8.27;;;14.90;99.90;;;;;;6123556;23;20385;-80
2023/05/22 01:04:47;;;;;;;8.98;8.23;;;14.90;99.90;;;;;;6123084;23;20282;-79
2023/05/22 01:07:15;;;;;;;9.35;8.48;;;15.00;96.40;;;;;;6150209;23;20313;-81
2023/05/22 01:09:41;;;;;;;9.77;8.88;;;15.00;86.20;;;;;;6123847;23;20589;-79
2023/05/22 01:12:16;;;;;;;9.13;8.30;;;15.00;79.30;;;;;;6122936;23;20338;-80
2023/05/22 01:15:02;;;;;;;9.18;8.30;;;15.00;78.00;;;;;;6123617;23;20202;-82
2023/05/22 01:17:46;;;;;;;8.93;8.07;;;15.50;81.60;;;;;;6150134;23;20136;-79
2023/05/22 01:20:36;;;;;;;9.80;8.90;;;14.90;84.30;;;;;;6123854;23;20183;-84
2023/05/22 01:23:43;;;;;;;9.40;8.55;;;14.90;99.90;;;;;;6123702;23;20175;-82
2023/05/22 01:26:19;;;;;;;9.93;8.38;;;14.90;93.20;;;;;;6003242;23;20469;-82
2023/05/22 01:29:03;;;;;;;9.90;9.00;;;14.80;97.80;;;;;;6103539;23;20179;-80
2023/05/22 01:31:35;;;;;;;9.45;8.70;;;14.80;99.90;;;;;;6124079;23;20156;-81
2023/05/22 01:34:02;;;;;;;9.90;9.00;;;14.80;99.90;;;;;;6151436;23;20143;-80
2023/05/22 01:36:33;;;;;;;10.20;9.18;;;14.70;99.90;;;;;;6127588;23;20164;-81
2023/05/22 01:39:03;;;;;;;9.48;8.57;;;14.60;99.90;;;;;;6127344;23;20184;-82
2023/05/22 01:41:29;;;;;;;10.32;9.43;;;14.50;99.90;;;;;;6127476;23;20235;-82
2023/05/22 01:43:55;;;;;;;10.35;9.40;;;15.10;99.90;;;;;;6127615;23;20156;-83
2023/05/22 01:46:23;;;;;;;9.82;8.93;;;14.50;99.90;;;;;;6153292;23;20183;-82
2023/05/22 01:48:49;;;;;;;10.10;9.18;;;14.50;99.90;;;;;;6127143;23;20180;-81
2023/05/22 01:51:24;;;;;;;10.38;9.48;;;14.50;99.90;;;;;;6126799;23;20514;-80
2023/05/22 01:53:56;;;;;;;9.52;8.52;;;14.40;99.90;;;;;;6127273;23;20624;-81
2023/05/22 01:56:29;;;;;;;9.93;9.02;;;14.60;99.90;;;;;;6127422;23;20619;-80
2023/05/22 01:59:21;;;;;;;9.38;8.57;;;14.40;99.90;;;;;;6127744;23;20254;-82
2023/05/22 02:01:50;;;;;;;9.88;8.90;;;14.30;99.90;;;;;;6072656;23;20163;-83
2023/05/22 02:04:19;;;;;;;10.40;9.40;;;14.80;99.90;;;;;;6153787;23;20159;-83
2023/05/22 02:06:46;;;;;;;9.13;8.32;;;14.30;99.90;;;;;;6127782;23;20655;-80
2023/05/22 02:09:13;;;;;;;9.45;8.63;;;14.30;99.90;;;;;;6154130;23;20171;-81
2023/05/22 02:11:40;;;;;;;9.40;8.20;;;14.50;99.90;;;;;;6153792;23;20152;-79
2023/05/22 02:14:07;;;;;;;9.32;8.52;;;14.20;99.90;;;;;;6126512;23;20164;-82
2023/05/22 02:16:33;;;;;;;9.40;8.60;;;14.20;99.90;;;;;;6127232;23;20160;-79
2023/05/22 02:19:06;;;;;;;9.90;9.00;;;14.40;99.90;;;;;;6125537;23;20678;-79
2023/05/22 02:21:33;;;;;;;9.57;8.77;;;14.10;99.90;;;;;;6153048;23;20139;-79
2023/05/22 02:23:59;;;;;;;9.57;8.77;;;15.00;99.90;;;;;;6126042;23;20164;-81
2023/05/22 02:26:24;;;;;;;9.50;8.70;;;14.00;99.90;;;;;;6151746;23;20186;-80
2023/05/22 02:28:50;;;;;;;9.55;8.65;;;14.00;99.90;;;;;;6150933;23;20171;-79
2023/05/22 02:31:17;;;;;;;9.32;8.60;;;14.20;99.90;;;;;;6125027;23;20164;-79
2023/05/22 02:33:42;;;;;;;9.18;8.27;;;13.90;99.90;;;;;;6125460;23;20160;-79
2023/05/22 02:36:09;;;;;;;8.70;8.00;;;14.00;99.90;;;;;;6151304;23;20247;-81
2023/05/22 02:38:35;;;;;;;9.63;8.63;;;13.90;99.90;;;;;;6126490;23;20175;-79
2023/05/22 02:41:01;;;;;;;9.52;8.57;;;13.90;99.90;;;;;;6125816;23;20167;-79
2023/05/22 02:43:26;;;;;;;9.68;8.68;;;13.90;99.90;;;;;;6125710;23;20171;-80
2023/05/22 02:45:52;;;;;;;10.07;8.80;;;14.40;99.90;;;;;;6126398;23;20188;-79
2023/05/22 02:48:18;;;;;;;10.00;7.82;;;13.80;99.90;;;;;;6125360;23;20173;-82
2023/05/22 02:50:43;;;;;;;9.20;8.40;;;13.90;99.90;;;;;;6126013;23;20707;-81
2023/05/22 02:53:09;;;;;;;8.98;8.18;;;14.10;99.90;;;;;;6152258;23;20151;-79
2023/05/22 02:55:35;;;;;;;9.43;8.60;;;14.40;99.90;;;;;;6126081;23;20159;-79
2023/05/22 02:58:01;;;;;;;8.77;7.88;;;13.80;99.90;;;;;;6125442;23;20167;-81
2023/05/22 03:00:27;;;;;;;11.15;8.50;;;14.10;99.90;;;;;;6152447;23;20180;-79
2023/05/22 03:02:52;;;;;;;8.93;8.13;;;14.80;99.90;;;;;;6125454;23;20557;-82
2023/05/22 03:05:18;;;;;;;8.98;8.18;;;13.70;99.90;;;;;;6126403;23;20186;-79
2023/05/22 03:07:44;;;;;;;8.93;8.23;;;14.60;99.90;;;;;;6125462;23;20234;-80
2023/05/22 03:10:09;;;;;;;9.85;8.95;;;13.60;99.90;;;;;;6152355;23;20174;-81
2023/05/22 03:12:35;;;;;;;8.82;8.07;;;13.70;99.90;;;;;;6125637;23;20159;-79
2023/05/22 03:15:01;;;;;;;9.10;8.15;;;13.70;99.90;;;;;;6125899;23;20160;-81
2023/05/22 03:17:26;;;;;;;9.40;8.60;;;13.70;99.90;;;;;;6126150;23;20238;-80
2023/05/22 03:19:52;;;;;;;9.30;8.50;;;13.60;99.90;;;;;;6126768;23;20522;-79
2023/05/22 03:22:17;;;;;;;9.15;8.35;;;13.60;99.90;;;;;;6125636;23;20167;-80
2023/05/22 03:24:43;;;;;;;9.38;8.68;;;13.40;99.90;;;;;;6126449;23;20164;-81
2023/05/22 03:27:10;;;;;;;9.55;8.75;;;13.40;99.90;;;;;;6125643;23;20191;-80
2023/05/22 03:29:36;;;;;;;9.63;8.77;;;13.40;99.90;;;;;;6125835;23;20635;-83
2023/05/22 03:32:02;;;;;;;10.23;9.23;;;13.40;99.90;;;;;;6125820;23;20166;-79
2023/05/22 03:34:28;;;;;;;9.45;8.55;;;13.40;99.90;;;;;;6151594;23;20674;-80
2023/05/22 03:36:56;;;;;;;10.30;9.38;;;13.40;99.90;;;;;;6126211;23;20227;-80
2023/05/22 03:39:22;;;;;;;9.57;8.73;;;13.60;99.90;;;;;;6126473;23;20207;-80
2023/05/22 03:41:48;;;;;;;13.25;8.27;;;14.20;99.90;;;;;;6152583;23;20167;-82
2023/05/22 03:44:13;;;;;;;8.75;8.00;;;13.50;99.90;;;;;;6152901;23;20147;-81
2023/05/22 03:46:39;;;;;;;9.70;8.73;;;13.60;99.90;;;;;;6124867;23;20187;-79
2023/05/22 03:49:04;;;;;;;9.20;8.30;;;14.30;99.90;;;;;;6125834;23;20570;-80
2023/05/22 03:51:30;;;;;;;9.07;8.27;;;14.10;99.90;;;;;;6125532;23;20635;-83
2023/05/22 03:53:56;;;;;;;8.60;7.80;;;14.10;99.90;;;;;;6125959;23;20163;-80
2023/05/22 03:56:21;;;;;;;9.18;8.40;;;13.90;99.90;;;;;;6126048;23;20246;-82
2023/05/22 03:58:47;;;;;;;8.88;7.97;;;14.10;99.90;;;;;;6125784;23;20639;-81
2023/05/22 04:01:13;;;;;;;8.85;7.53;;;14.10;99.90;;;;;;6151337;23;20170;-82
2023/05/22 04:03:38;;;;;;;8.82;7.00;;;15.10;99.90;;;;;;6151344;23;20233;-82
2023/05/22 04:06:04;;;;;;;7.28;6.60;;;14.40;68.70;;;;;;6125229;23;20188;-80
2023/05/22 04:08:30;;;;;;;6.82;6.22;;;14.60;27.60;;;;;;6124699;23;20163;-83
2023/05/22 04:10:55;;;;;;;7.07;6.38;;;14.80;6.70;;;;;;6150711;23;20235;-80
2023/05/22 04:13:21;;;;;;;13.00;6.65;;;15.00;1.00;;;;;;6125220;23;20194;-79
2023/05/22 04:15:48;;;;;;;7.00;6.40;;;15.40;1.00;;;;;;6125760;23;20206;-82
2023/05/22 04:18:14;;;;;;;6.93;6.13;;;15.20;1.00;;;;;;6151171;23;20166;-79
2023/05/22 04:20:41;;;;;;;6.78;5.95;;;16.20;1.00;;;;;;6125125;23;20635;-83
2023/05/22 04:23:07;;;;;;;8.00;5.82;;;15.40;1.00;;;;;;6124369;23;20167;-79
2023/05/22 04:25:33;;;;;;;6.85;6.10;;;15.50;1.00;;;;;;6149807;23;20237;-79
2023/05/22 04:28:02;;;;;;;6.60;5.95;;;15.50;1.00;;;;;;6151050;23;20147;-81
2023/05/22 04:30:28;;;;;;;6.85;6.20;;;16.20;1.00;;;;;;6124954;23;20183;-82
2023/05/22 04:32:55;;;;;;;7.85;6.47;;;15.70;1.00;;;;;;6124601;23;20169;-82
2023/05/22 04:35:21;;;;;;;12.32;6.80;;;15.80;1.00;;;;;;6126339;23;20163;-79
2023/05/22 04:37:46;;;;;;;6.63;5.60;;;16.60;1.00;;;;;;6124353;23;20183;-79
2023/05/22 04:40:14;;;;;;;6.72;6.13;;;15.90;1.00;;;;;;6124088;23;20783;-83
2023/05/22 04:42:41;;;;;;;6.50;5.88;;;16.00;1.00;;;;;;6125093;23;20291;-83
2023/05/22 04:45:07;;;;;;;6.78;5.75;;;16.50;1.00;;;;;;6125198;23;20159;-83
2023/05/22 04:47:32;;;;;;;6.25;5.65;;;16.10;1.00;;;;;;6124539;23;20223;-80
2023/05/22 04:50:02;;;;;;;6.70;6.10;;;16.80;1.00;;;;;;6125868;23;20222;-79
2023/05/22 04:52:28;;;;;;;7.47;6.03;;;16.30;1.00;;;;;;6150966;23;20652;-79
2023/05/22 04:54:54;;;;;;;5.82;5.15;;;16.30;1.00;;;;;;6150768;23;20160;-80
2023/05/22 04:57:20;;;;;;;6.10;5.38;;;16.50;1.00;;;;;;6151816;23;20243;-79
2023/05/22 04:59:46;;;;;;;5.53;5.13;;;17.10;1.00;;;;;;6124675;23;20502;-79
2023/05/22 05:02:12;;;;;;;6.00;5.07;;;16.70;1.00;;;;;;6125266;23;20175;-79
2023/05/22 05:04:38;;;;;;;6.10;5.60;;;16.70;1.00;;;;;;6125119;23;20159;-80
2023/05/22 05:07:04;;;;;;;5.70;5.07;;;16.70;1.00;;;;;;6125056;23;20601;-80
2023/05/22 05:09:30;;;;;;;5.63;5.13;;;16.80;1.00;;;;;;6125248;23;20360;-79
2023/05/22 05:11:57;;;;;;;6.30;5.70;;;17.00;1.00;;;;;;6126967;23;20247;-83
2023/05/22 05:14:23;;;;;;;7.10;5.18;;;17.00;1.00;;;;;;6153745;23;20179;-83
2023/05/22 05:16:50;;;;;;;6.10;5.07;;;17.20;1.00;;;;;;6152755;23;20604;-84
2023/05/22 05:19:22;;;;;;;5.70;5.05;;;18.10;1.00;;;;;;6152763;23;20181;-81
2023/05/22 05:21:48;;;;;;;6.13;5.38;;;17.50;1.00;;;;;;6126414;23;20638;-82
2023/05/22 05:24:16;;;;;;;6.13;5.53;;;17.80;1.00;;;;;;6153560;23;20255;-83
2023/05/22 05:26:42;;;;;;;5.97;5.28;;;18.70;1.00;;;;;;6127154;23;20191;-82
2023/05/22 05:29:07;;;;;;;5.72;5.15;;;18.50;1.00;;;;;;6127535;23;20186;-83
2023/05/22 05:31:33;;;;;;;5.22;4.72;;;19.00;1.00;;;;;;6127297;23;20165;-80
2023/05/22 05:33:59;;;;;;;5.47;4.60;;;19.50;1.00;;;;;;6126852;23;20224;-80
2023/05/22 05:36:25;;;;;;;5.00;4.50;;;20.30;1.00;;;;;;6126330;23;20189;-81
2023/05/22 05:38:50;;;;;;;5.30;4.80;;;20.90;1.00;;;;;;6126572;23;20525;-83
2023/05/22 05:41:17;;;;;;;4.85;4.45;;;21.60;1.00;;;;;;6127068;23;20168;-82
2023/05/22 05:43:44;;;;;;;6.40;5.00;;;21.90;1.00;;;;;;6127335;23;20198;-80
2023/05/22 05:46:10;;;;;;;5.95;5.05;;;21.40;1.00;;;;;;6127328;23;20191;-80
2023/05/22 05:48:35;;;;;;;5.40;4.90;;;21.10;1.00;;;;;;6153493;23;20155;-83
2023/05/22 05:51:01;;;;;;;5.05;4.55;;;20.70;1.00;;;;;;6127929;23;20229;-80
2023/05/22 05:53:27;;;;;;;5.15;4.65;;;20.60;1.00;;;;;;6127493;23;20168;-80
2023/05/22 05:55:53;;;;;;;5.40;4.90;;;19.80;1.00;;;;;;6153790;23;20155;-83
2023/05/22 05:58:18;;;;;;;5.45;4.70;;;19.70;1.00;;;;;;6127499;23;20227;-84
2023/05/22 06:00:44;;;;;;;6.32;5.05;;;19.20;1.00;;;;;;6127518;23;20186;-80
2023/05/22 06:03:10;;;;;;;5.45;4.95;;;19.50;1.00;;;;;;6127500;23;20637;-85
2023/05/22 06:05:35;;;;;;;5.40;4.53;;;19.70;1.00;;;;;;6127792;23;20187;-80
2023/05/22 06:08:01;;;;;;;5.80;5.22;;;19.90;1.00;;;;;;6126506;23;20160;-85
2023/05/22 06:10:26;;;;;;;5.28;4.82;;;19.20;1.00;;;;;;6127876;23;20175;-80
2023/05/22 06:12:52;;;;;;;6.22;4.82;;;19.30;1.00;;;;;;6127186;23;20577;-82
2023/05/22 06:15:18;;;;;;;5.85;4.93;;;19.40;1.00;;;;;;6153759;23;20163;-80
2023/05/22 06:17:43;;;;;;;8.02;5.57;;;19.70;1.00;;;;;;6127844;23;20175;-80
2023/05/22 06:20:09;;;;;;;5.72;5.22;;;20.00;1.00;;;;;;6126989;23;20171;-85
2023/05/22 06:22:35;;;;;;;5.70;5.05;;;19.40;1.00;;;;;;6128096;23;20160;-81
2023/05/22 06:25:00;;;;;;;5.05;4.55;;;19.50;1.00;;;;;;6153963;23;20155;-83
2023/05/22 06:27:26;;;;;;;6.20;4.95;;;20.40;1.00;;;;;;6129020;23;20167;-82
2023/05/22 06:29:52;;;;;;;5.50;5.00;;;20.20;1.00;;;;;;6128356;23;20443;-80
2023/05/22 06:32:18;;;;;;;6.80;4.95;;;19.60;1.00;;;;;;6128121;23;20247;-80
2023/05/22 06:34:45;;;;;;;5.75;5.25;;;20.40;1.00;;;;;;6127321;23;20164;-80
2023/05/22 06:37:11;;;;;;;6.20;4.55;;;20.30;1.00;;;;;;6127577;23;20186;-82
2023/05/22 06:39:37;;;;;;;5.80;5.25;;;20.40;1.00;;;;;;6128094;23;20180;-84
2023/05/22 06:42:03;;;;;;;5.00;4.53;;;20.80;1.00;;;;;;6127775;23;20486;-80
2023/05/22 06:44:29;;;;;;;5.50;5.00;;;20.90;1.00;;;;;;6128494;23;20171;-82
2023/05/22 06:46:55;;;;;;;6.28;5.22;;;21.40;1.00;;;;;;6153764;23;20191;-81
2023/05/22 06:49:20;;;;;;;6.93;4.72;;;20.90;1.00;;;;;;6126427;23;20254;-79
2023/05/22 06:51:46;;;;;;;5.72;4.82;;;21.00;1.00;;;;;;6127959;23;20156;-85
2023/05/22 06:54:12;;;;;;;5.30;4.80;;;21.60;1.00;;;;;;6127615;23;20194;-80
2023/05/22 06:56:42;;;;;;;7.13;4.95;;;21.20;1.00;;;;;;6127768;23;20167;-80
2023/05/22 06:59:09;;;;;;;10.95;5.22;;;21.60;1.00;;;;;;6127518;23;20245;-82
2023/05/22 07:01:35;;;;;;;6.35;5.32;;;21.40;1.00;;;;;;6127226;23;20164;-79
2023/05/22 07:04:03;;;;;;;6.80;5.43;;;21.30;1.00;;;;;;6126690;23;20159;-80
2023/05/22 07:06:32;;;;;;;5.55;4.90;;;20.90;1.00;;;;;;6129227;23;20218;-82
2023/05/22 07:08:58;;;;;;;5.72;5.22;;;20.90;1.00;;;;;;6154236;23;20176;-84
2023/05/22 07:11:23;;;;;;;6.82;5.28;;;20.70;1.00;;;;;;6128893;23;20159;-80
2023/05/22 07:13:49;;;;;;;7.15;5.55;;;20.50;1.00;;;;;;6128367;23;20163;-80
2023/05/22 07:16:15;;;;;;;5.75;5.15;;;20.60;1.00;;;;;;6129585;23;20163;-81
2023/05/22 07:18:41;;;;;;;6.18;5.57;;;20.50;1.00;;;;;;6128370;23;20600;-80
2023/05/22 07:21:06;;;;;;;7.30;5.60;;;20.60;1.00;;;;;;6128242;23;20246;-81
2023/05/22 07:23:32;;;;;;;6.43;5.82;;;20.70;1.00;;;;;;6127453;23;20163;-84
2023/05/22 07:25:57;;;;;;;5.85;5.35;;;21.20;1.00;;;;;;6127418;23;20226;-85
2023/05/22 07:28:23;;;;;;;6.25;5.13;;;21.50;1.00;;;;;;6153450;23;20155;-80
2023/05/22 07:30:49;;;;;;;7.65;5.13;;;21.30;1.00;;;;;;6126720;23;20206;-84
2023/05/22 07:33:14;;;;;;;7.28;5.47;;;21.20;1.00;;;;;;6126966;23;20202;-81
2023/05/22 07:35:40;;;;;;;6.75;5.03;;;21.00;1.00;;;;;;6126687;23;20175;-85
2023/05/22 07:38:05;;;;;;;7.55;5.68;;;21.00;1.00;;;;;;6126132;23;20203;-80
2023/05/22 07:40:31;;;;;;;11.43;5.63;;;21.20;1.00;;;;;;6126065;23;20447;-82
2023/05/22 07:42:57;;;;;;;9.00;6.10;;;21.20;1.00;;;;;;6127574;23;20223;-80
2023/05/22 07:45:22;;;;;;;9.57;5.93;;;21.30;1.00;;;;;;6126377;23;20188;-80
2023/05/22 07:47:48;;;;;;;5.47;5.07;;;21.70;1.00;;;;;;6126542;23;20199;-83
2023/05/22 07:50:13;;;;;;;6.35;5.10;;;22.00;1.00;;;;;;6126464;23;20254;-81
2023/05/22 07:52:39;;;;;;;5.45;4.90;;;22.30;1.00;;;;;;6152084;23;20230;-81
2023/05/22 07:55:06;;;;;;;5.85;5.20;;;22.60;1.00;;;;;;6126221;23;20163;-82
2023/05/22 07:57:35;;;;;;;6.38;5.22;;;22.70;1.00;;;;;;6126676;23;20162;-83
2023/05/22 08:00:08;;;;;;;8.32;5.00;;;22.00;1.00;;;;;;6126905;23;20179;-83
2023/05/22 08:02:34;;;;;;;6.00;5.50;;;22.30;1.00;;;;;;6126382;23;20206;-83
2023/05/22 08:05:00;;;;;;;7.32;5.47;;;22.00;1.00;;;;;;6126350;23;20159;-81
2023/05/22 08:07:25;;;;;;;7.38;6.05;;;22.20;1.00;;;;;;6152759;23;20222;-81
2023/05/22 08:09:51;;;;;;;10.98;5.80;;;21.80;1.00;;;;;;6152485;23;20175;-82
2023/05/22 08:12:16;;;;;;;9.75;5.88;;;22.20;1.00;;;;;;6126349;23;20224;-80
2023/05/22 08:14:42;;;;;;;6.57;5.90;;;21.50;1.00;;;;;;6152065;23;20156;-83
2023/05/22 08:17:07;;;;;;;6.20;5.60;;;21.30;1.00;;;;;;6127094;23;20630;-81
2023/05/22 08:19:33;;;;;;;6.78;5.47;;;21.60;1.00;;;;;;6127346;23;20666;-84
2023/05/22 08:21:59;;;;;;;6.18;5.57;;;21.50;1.00;;;;;;6152945;23;20166;-82
2023/05/22 08:24:29;;;;;;;8.50;5.47;;;21.70;1.00;;;;;;6126539;23;20440;-83
2023/05/22 08:26:57;;;;;;;10.68;6.00;;;21.90;1.00;;;;;;6127235;23;20183;-83
2023/05/22 08:29:23;;;;;;;6.63;5.53;;;21.80;1.00;;;;;;6127385;23;20207;-84
2023/05/22 08:31:49;;;;;;;6.70;5.72;;;21.80;1.00;;;;;;6126772;23;20167;-80
2023/05/22 08:34:14;;;;;;;8.57;5.90;;;22.60;1.00;;;;;;6126654;23;20155;-85
2023/05/22 08:36:40;;;;;;;5.82;5.28;;;22.40;1.00;;;;;;6152685;23;20552;-81
2023/05/22 08:39:07;;;;;;;5.93;5.22;;;22.60;1.00;;;;;;6126631;23;20216;-82
2023/05/22 08:41:33;;;;;;;6.55;5.18;;;22.90;1.00;;;;;;6126765;23;20163;-84
2023/05/22 08:43:58;;;;;;;6.30;5.80;;;23.50;1.00;;;;;;6125334;23;20164;-80
2023/05/22 08:46:27;;;;;;;7.45;5.93;;;23.10;1.00;;;;;;6126492;23;20183;-80
2023/05/22 08:48:57;;;;;;;7.00;5.93;;;22.90;1.00;;;;;;6153201;23;20197;-84
2023/05/22 08:51:27;;;;;;;6.30;5.70;;;22.70;1.00;;;;;;6153997;23;20156;-80
2023/05/22 08:53:55;;;;;;;6.75;5.85;;;22.70;1.00;;;;;;6127235;23;20599;-80
2023/05/22 08:56:21;;;;;;;6.80;5.72;;;22.70;1.00;;;;;;6128222;23;20174;-82
2023/05/22 08:58:48;;;;;;;6.60;6.07;;;23.00;1.00;;;;;;6128826;23;20183;-83
2023/05/22 09:01:15;;;;;;;7.05;5.70;;;23.10;1.00;;;;;;6129252;23;20523;-83
2023/05/22 09:03:41;;;;;;;6.22;5.68;;;23.00;1.00;;;;;;6128027;23;20224;-83
2023/05/22 09:06:09;;;;;;;6.68;5.70;;;23.10;1.00;;;;;;6127367;23;20192;-83
2023/05/22 09:08:35;;;;;;;8.30;5.75;;;23.30;1.00;;;;;;6126637;23;20160;-80
2023/05/22 09:11:01;;;;;;;6.78;5.97;;;23.10;1.00;;;;;;6126625;23;20171;-83
2023/05/22 09:13:29;;;;;;;7.45;6.20;;;23.00;1.00;;;;;;6128089;23;20163;-82
2023/05/22 09:16:08;;;;;;;6.80;6.13;;;22.80;1.00;;;;;;6128520;23;20164;-81
2023/05/22 09:18:36;;;;;;;6.78;5.93;;;22.80;1.00;;;;;;6152960;23;20214;-84
2023/05/22 09:21:02;;;;;;;7.43;5.80;;;22.70;1.00;;;;;;6128481;23;20186;-83
2023/05/22 09:23:28;;;;;;;7.40;6.32;;;22.80;1.00;;;;;;6153698;23;20191;-82
2023/05/22 09:26:00;;;;;;;7.10;6.40;;;22.90;1.00;;;;;;6127716;23;20230;-80
2023/05/22 09:28:26;;;;;;;7.07;5.80;;;22.50;1.00;;;;;;6127605;23;20191;-82
2023/05/22 09:30:53;;;;;;;7.72;6.25;;;22.70;1.00;;;;;;6126906;23;20155;-80
2023/05/22 09:33:21;;;;;;;6.85;6.15;;;22.60;1.00;;;;;;6127139;23;20197;-86
2023/05/22 09:35:47;;;;;;;6.80;6.03;;;22.60;1.00;;;;;;6128757;23;20166;-80
2023/05/22 09:38:13;;;;;;;7.03;6.32;;;22.70;1.00;;;;;;6128811;23;20255;-81
2023/05/22 09:40:39;;;;;;;9.25;6.50;;;22.80;1.00;;;;;;6129528;23;20191;-85
2023/05/22 09:43:16;;;;;;;6.50;5.90;;;23.10;1.00;;;;;;6129618;23;20164;-80
2023/05/22 09:45:42;;;;;;;8.18;6.38;;;23.00;1.00;;;;;;6128641;23;20218;-83
2023/05/22 09:48:08;;;;;;;7.05;6.20;;;23.10;1.00;;;;;;6128322;23;20163;-84
2023/05/22 09:50:38;;;;;;;6.45;5.63;;;23.20;1.00;;;;;;6129177;23;20215;-84
2023/05/22 09:53:04;;;;;;;7.60;6.47;;;23.20;1.00;;;;;;6127812;23;20167;-83
2023/05/22 09:55:31;;;;;;;6.55;5.47;;;23.00;1.00;;;;;;6128917;23;20163;-82
2023/05/22 09:58:00;;;;;;;7.65;5.90;;;23.00;1.00;;;;;;6130037;23;20159;-83
2023/05/22 10:00:27;;;;;;;6.43;5.72;;;23.00;1.00;;;;;;6156530;23;20472;-80
2023/05/22 10:03:10;;;;;;;6.80;6.10;;;23.20;1.00;;;;;;6129992;23;20168;-83
2023/05/22 10:05:39;;;;;;;7.05;5.57;;;23.20;1.00;;;;;;6129642;23;20632;-80
2023/05/22 10:08:10;;;;;;;7.10;6.40;;;23.20;1.00;;;;;;6129680;23;20604;-80
2023/05/22 10:10:37;;;;;;;7.10;6.40;;;23.20;1.00;;;;;;6132207;23;20239;-81
2023/05/22 10:13:04;;;;;;;6.35;5.75;;;23.40;1.00;;;;;;6157124;23;20155;-83
2023/05/22 10:15:30;;;;;;;6.13;5.57;;;23.60;1.00;;;;;;6157033;23;20163;-83
2023/05/22 10:17:57;;;;;;;6.20;5.60;;;23.60;1.00;;;;;;6131030;23;20475;-80
2023/05/22 10:20:25;;;;;;;6.72;6.13;;;23.70;1.00;;;;;;6129574;23;20183;-83
2023/05/22 10:22:53;;;;;;;7.15;5.60;;;23.90;1.00;;;;;;6129536;23;20841;-82
2023/05/22 10:25:20;;;;;;;6.07;5.57;;;23.90;1.00;;;;;;6130811;23;20163;-81
2023/05/22 10:27:47;;;;;;;6.25;5.70;;;23.80;1.00;;;;;;6131046;23;20159;-80
2023/05/22 10:30:43;;;;;;;8.32;5.82;;;23.90;1.00;;;;;;6130435;23;20186;-82
2023/05/22 10:33:24;;;;;;;6.82;6.13;;;24.10;1.00;;;;;;6130621;23;20505;-80
2023/05/22 10:36:30;;;;;;;6.32;5.80;;;24.30;1.00;;;;;;6129561;23;20214;-81
2023/05/22 10:38:56;;;;;;;6.00;5.50;;;24.60;1.00;;;;;;6130311;23;20192;-83
2023/05/22 10:41:22;;;;;;;6.53;5.57;;;24.80;1.00;;;;;;6129907;23;20238;-81
2023/05/22 10:43:48;;;;;;;6.10;5.60;;;24.60;1.00;;;;;;6130392;23;20175;-84
2023/05/22 10:46:14;;;;;;;5.85;5.35;;;24.80;1.00;;;;;;6128899;23;20211;-81
2023/05/22 10:48:44;;;;;;;6.05;5.45;;;24.90;1.00;;;;;;6154388;23;20152;-83
2023/05/22 10:51:18;;;;;;;6.57;5.97;;;25.00;1.00;;;;;;6128432;23;20243;-85
2023/05/22 10:53:46;;;;;;;6.00;5.47;;;24.90;1.00;;;;;;6128224;23;20206;-80
2023/05/22 10:56:14;;;;;;;9.02;5.70;;;25.20;1.00;;;;;;6127410;23;20196;-84
2023/05/22 10:58:54;;;;;;;7.30;6.00;;;25.30;1.00;;;;;;6127915;23;20164;-83
2023/05/22 11:01:20;;;;;;;6.13;5.63;;;25.30;1.00;;;;;;6128699;23;20152;-81
2023/05/22 11:03:57;;;;;;;7.93;5.65;;;25.10;1.00;;;;;;6128243;23;20163;-81
2023/05/22 11:06:55;;;;;;;6.13;5.60;;;25.10;1.00;;;;;;6153716;23;20247;-84
2023/05/22 11:09:32;;;;;;;6.50;5.47;;;24.70;1.00;;;;;;6127365;23;20582;-80
2023/05/22 11:12:21;;;;;;;8.10;5.95;;;24.80;1.00;;;;;;6128360;23;20191;-83
2023/05/22 11:15:01;;;;;;;8.00;5.90;;;24.90;1.00;;;;;;6129167;23;20473;-82
2023/05/22 11:17:29;;;;;;;6.50;5.90;;;25.00;1.00;;;;;;6128609;23;20156;-81
2023/05/22 11:20:21;;;;;;;5.85;5.35;;;24.70;1.00;;;;;;6155345;23;20310;-80
2023/05/22 11:22:58;;;;;;;8.88;6.28;;;24.30;1.00;;;;;;6129050;23;20224;-80
2023/05/22 11:25:25;;;;;;;6.35;5.82;;;24.70;1.00;;;;;;6129194;23;20166;-85
2023/05/22 11:27:53;;;;;;;6.60;6.10;;;24.60;1.00;;;;;;6154316;23;20464;-82
2023/05/22 11:30:19;;;;;;;5.85;5.38;;;25.00;1.00;;;;;;6129168;23;20187;-81
2023/05/22 11:32:46;;;;;;;6.78;6.18;;;25.30;1.00;;;;;;6128566;23;20247;-82
2023/05/22 11:35:16;;;;;;;6.18;5.57;;;25.20;1.00;;;;;;6152930;23;20158;-83
2023/05/22 11:37:42;;;;;;;6.15;5.55;;;25.00;1.00;;;;;;6127961;23;20190;-84
2023/05/22 11:40:09;;;;;;;6.55;5.95;;;24.90;1.00;;;;;;6130170;23;20186;-82
2023/05/22 11:42:35;;;;;;;6.53;5.80;;;25.10;1.00;;;;;;6129227;23;20155;-84
2023/05/22 11:45:02;;;;;;;6.50;5.90;;;25.10;1.00;;;;;;6130739;23;20507;-85
2023/05/22 11:47:28;;;;;;;6.47;5.88;;;24.90;1.00;;;;;;6130747;23;20223;-80
2023/05/22 11:49:55;;;;;;;8.15;6.20;;;24.90;1.00;;;;;;6130255;23;20246;-81
2023/05/22 11:52:20;;;;;;;6.50;5.50;;;24.90;1.00;;;;;;6128888;23;20183;-82
2023/05/22 11:54:46;;;;;;;6.53;5.28;;;24.50;1.00;;;;;;6155456;23;20155;-85
2023/05/22 11:57:13;;;;;;;8.23;5.40;;;24.40;1.00;;;;;;6129540;23;20163;-86
2023/05/22 11:59:39;;;;;;;6.03;5.57;;;24.60;1.00;;;;;;6130035;23;20270;-80
2023/05/22 12:02:06;;;;;;;6.07;5.57;;;24.60;1.00;;;;;;6155784;23;20163;-84
2023/05/22 12:04:32;;;;;;;6.43;5.72;;;24.80;1.00;;;;;;6129599;23;20242;-82
2023/05/22 12:06:58;;;;;;;6.35;5.40;;;25.00;1.00;;;;;;6129055;23;20183;-83
2023/05/22 12:09:26;;;;;;;6.65;5.70;;;24.90;1.00;;;;;;6128657;23;20179;-81
2023/05/22 12:11:58;;;;;;;6.65;5.53;;;25.00;1.00;;;;;;6129110;23;20183;-81
2023/05/22 12:14:27;;;;;;;6.57;5.93;;;25.10;1.00;;;;;;6126446;23;20156;-84
2023/05/22 12:16:53;;;;;;;6.40;5.53;;;25.40;1.00;;;;;;6128808;23;20163;-81
2023/05/22 12:19:20;;;;;;;7.05;5.63;;;25.20;1.00;;;;;;6128277;23;20183;-81
2023/05/22 12:21:48;;;;;;;6.40;5.63;;;25.20;1.00;;;;;;6128020;23;20246;-81
2023/05/22 12:24:14;;;;;;;12.38;5.90;;;25.50;1.00;;;;;;6128755;23;20250;-86
2023/05/22 12:26:40;;;;;;;5.93;5.20;;;25.30;1.00;;;;;;6128341;23;20717;-81
2023/05/22 12:29:05;;;;;;;8.40;5.60;;;25.60;1.00;;;;;;6128451;23;20413;-81
2023/05/22 12:31:38;;;;;;;5.95;5.25;;;25.70;1.00;;;;;;6126678;23;20195;-81
2023/05/22 12:34:06;;;;;;;8.57;5.38;;;25.90;1.00;;;;;;6154140;23;20152;-82
2023/05/22 12:36:40;;;;;;;6.47;5.88;;;25.70;1.00;;;;;;6128616;23;20181;-80
2023/05/22 12:39:10;;;;;;;7.38;5.50;;;25.40;1.00;;;;;;6127100;23;20871;-81
2023/05/22 12:41:38;;;;;;;7.65;5.85;;;25.40;1.00;;;;;;6126558;23;20163;-83
2023/05/22 12:44:04;;;;;;;6.20;5.60;;;25.40;1.00;;;;;;6126326;23;20164;-81
2023/05/22 12:46:31;;;;;;;7.35;5.97;;;25.50;1.00;;;;;;6153566;23;20178;-81
2023/05/22 12:48:57;;;;;;;7.75;5.70;;;25.50;1.00;;;;;;6153742;23;20723;-84
2023/05/22 12:51:30;;;;;;;6.80;6.00;;;25.30;1.00;;;;;;6128345;23;20155;-85
2023/05/22 12:53:56;;;;;;;7.40;5.43;;;25.30;1.00;;;;;;6128059;23;20151;-84
2023/05/22 12:56:22;;;;;;;6.13;5.57;;;25.50;1.00;;;;;;6127867;23;20175;-82